sensor_id;sensor_type;location;lat;lon;timestamp;temperature;humidity
70947;DHT22;58605;48.700;8.760;2022-08-21T00:02:16;13.20;99.90
70947;DHT22;58605;48.700;8.760;2022-08-21T00:04:43;13.10;99.90
70947;DHT22;58605;48.700;8.760;2022-08-21T00:07:09;13.00;99.90
70947;DHT22;58605;48.700;8.760;2022-08-21T00:09:36;12.90;99.90
70947;DHT22;58605;48.700;8.760;2022-08-21T00:12:02;12.90;99.90
70947;DHT22;58605;48.700;8.760;2022-08-21T00:14:29;12.90;99.90
70947;DHT22;58605;48.700;8.760;2022-08-21T00:16:57;12.80;99.90
70947;DHT22;58605;48.700;8.760;2022-08-21T00:19:24;12.80;99.90
70947;DHT22;58605;48.700;8.760;2022-08-21T00:21:50;12.80;99.90
70947;DHT22;58605;48.700;8.760;2022-08-21T00:24:16;12.70;99.90
70947;DHT22;58605;48.700;8.760;2022-08-21T00:26:42;12.70;99.90
70947;DHT22;58605;48.700;8.760;2022-08-21T00:29:09;12.80;99.90
70947;DHT22;58605;48.700;8.760;2022-08-21T00:31:35;12.70;99.90
70947;DHT22;58605;48.700;8.760;2022-08-21T00:34:03;12.70;99.90
70947;DHT22;58605;48.700;8.760;2022-08-21T00:36:29;12.60;99.90
70947;DHT22;58605;48.700;8.760;2022-08-21T00:38:56;12.60;99.90
70947;DHT22;58605;48.700;8.760;2022-08-21T00:41:22;12.60;99.90
70947;DHT22;58605;48.700;8.760;2022-08-21T00:43:49;12.50;99.90
70947;DHT22;58605;48.700;8.760;2022-08-21T00:46:16;12.50;99.90
70947;DHT22;58605;48.700;8.760;2022-08-21T00:48:42;12.50;99.90
70947;DHT22;58605;48.700;8.760;2022-08-21T00:51:12;12.50;99.90
70947;DHT22;58605;48.700;8.760;2022-08-21T00:53:41;12.40;99.90
70947;DHT22;58605;48.700;8.760;2022-08-21T00:56:09;12.40;99.90
70947;DHT22;58605;48.700;8.760;2022-08-21T00:58:37;12.30;99.90
70947;DHT22;58605;48.700;8.760;2022-08-21T01:01:05;12.30;99.90
70947;DHT22;58605;48.700;8.760;2022-08-21T01:03:33;12.20;99.90
70947;DHT22;58605;48.700;8.760;2022-08-21T01:05:59;12.20;99.90
70947;DHT22;58605;48.700;8.760;2022-08-21T01:08:28;12.20;99.90
70947;DHT22;58605;48.700;8.760;2022-08-21T01:10:54;12.10;99.90
70947;DHT22;58605;48.700;8.760;2022-08-21T01:13:23;12.10;99.90
70947;DHT22;58605;48.700;8.760;2022-08-21T01:15:52;12.00;99.90
70947;DHT22;58605;48.700;8.760;2022-08-21T01:18:19;12.00;99.90
70947;DHT22;58605;48.700;8.760;2022-08-21T01:21:00;11.90;99.90
70947;DHT22;58605;48.700;8.760;2022-08-21T01:23:26;11.90;99.90
70947;DHT22;58605;48.700;8.760;2022-08-21T01:25:52;11.90;99.90
70947;DHT22;58605;48.700;8.760;2022-08-21T01:28:19;11.80;99.90
70947;DHT22;58605;48.700;8.760;2022-08-21T01:30:47;11.90;99.90
70947;DHT22;58605;48.700;8.760;2022-08-21T01:33:14;11.90;99.90
70947;DHT22;58605;48.700;8.760;2022-08-21T01:35:40;11.90;99.90
70947;DHT22;58605;48.700;8.760;2022-08-21T01:38:08;11.90;99.90
70947;DHT22;58605;48.700;8.760;2022-08-21T01:40:34;11.90;99.90
70947;DHT22;58605;48.700;8.760;2022-08-21T01:43:00;11.90;99.90
70947;DHT22;58605;48.700;8.760;2022-08-21T01:45:27;12.00;99.90
70947;DHT22;58605;48.700;8.760;2022-08-21T01:47:53;12.00;99.90
70947;DHT22;58605;48.700;8.760;2022-08-21T01:50:20;11.90;99.90
70947;DHT22;58605;48.700;8.760;2022-08-21T01:52:46;11.90;99.90
70947;DHT22;58605;48.700;8.760;2022-08-21T01:55:16;11.80;99.90
70947;DHT22;58605;48.700;8.760;2022-08-21T01:57:43;11.70;99.90
70947;DHT22;58605;48.700;8.760;2022-08-21T02:00:13;11.70;99.90
70947;DHT22;58605;48.700;8.760;2022-08-21T02:02:40;11.70;99.90
70947;DHT22;58605;48.700;8.760;2022-08-21T02:05:07;11.70;99.90
70947;DHT22;58605;48.700;8.760;2022-08-21T02:07:36;11.60;99.90
70947;DHT22;58605;48.700;8.760;2022-08-21T02:10:03;11.70;99.90
70947;DHT22;58605;48.700;8.760;2022-08-21T02:12:31;11.70;99.90
70947;DHT22;58605;48.700;8.760;2022-08-21T02:14:57;11.70;99.90
70947;DHT22;58605;48.700;8.760;2022-08-21T02:17:24;11.60;99.90
70947;DHT22;58605;48.700;8.760;2022-08-21T02:19:50;11.60;99.90
70947;DHT22;58605;48.700;8.760;2022-08-21T02:22:16;11.60;99.90
70947;DHT22;58605;48.700;8.760;2022-08-21T02:24:42;11.50;99.90
70947;DHT22;58605;48.700;8.760;2022-08-21T02:27:08;11.50;99.90
70947;DHT22;58605;48.700;8.760;2022-08-21T02:29:35;11.40;99.90
70947;DHT22;58605;48.700;8.760;2022-08-21T02:32:01;11.40;99.90
70947;DHT22;58605;48.700;8.760;2022-08-21T02:34:27;11.40;99.90
70947;DHT22;58605;48.700;8.760;2022-08-21T02:36:53;11.40;99.90
70947;DHT22;58605;48.700;8.760;2022-08-21T02:39:19;11.40;99.90
70947;DHT22;58605;48.700;8.760;2022-08-21T02:41:45;11.40;99.90
70947;DHT22;58605;48.700;8.760;2022-08-21T02:44:11;11.30;99.90
70947;DHT22;58605;48.700;8.760;2022-08-21T02:46:39;11.30;99.90
70947;DHT22;58605;48.700;8.760;2022-08-21T02:49:05;11.30;99.90
70947;DHT22;58605;48.700;8.760;2022-08-21T02:51:31;11.20;99.90
70947;DHT22;58605;48.700;8.760;2022-08-21T02:53:57;11.20;99.90
70947;DHT22;58605;48.700;8.760;2022-08-21T02:56:23;11.10;99.90
70947;DHT22;58605;48.700;8.760;2022-08-21T02:58:50;11.10;99.90
70947;DHT22;58605;48.700;8.760;2022-08-21T03:01:17;11.00;99.90
70947;DHT22;58605;48.700;8.760;2022-08-21T03:03:46;11.10;99.90
70947;DHT22;58605;48.700;8.760;2022-08-21T03:06:17;11.00;99.90
70947;DHT22;58605;48.700;8.760;2022-08-21T03:08:43;11.10;99.90
70947;DHT22;58605;48.700;8.760;2022-08-21T03:11:11;11.10;99.90
70947;DHT22;58605;48.700;8.760;2022-08-21T03:13:37;11.10;99.90
70947;DHT22;58605;48.700;8.760;2022-08-21T03:16:05;11.20;99.90
70947;DHT22;58605;48.700;8.760;2022-08-21T03:18:32;11.20;99.90
70947;DHT22;58605;48.700;8.760;2022-08-21T03:20:59;11.10;99.90
70947;DHT22;58605;48.700;8.760;2022-08-21T03:23:25;11.10;99.90
70947;DHT22;58605;48.700;8.760;2022-08-21T03:25:51;11.00;99.90
70947;DHT22;58605;48.700;8.760;2022-08-21T03:28:19;11.00;99.90
70947;DHT22;58605;48.700;8.760;2022-08-21T03:30:48;10.90;99.90
70947;DHT22;58605;48.700;8.760;2022-08-21T03:33:15;10.80;99.90
70947;DHT22;58605;48.700;8.760;2022-08-21T03:35:41;10.90;99.90
70947;DHT22;58605;48.700;8.760;2022-08-21T03:38:09;10.80;99.90
70947;DHT22;58605;48.700;8.760;2022-08-21T03:40:37;10.90;99.90
70947;DHT22;58605;48.700;8.760;2022-08-21T03:43:03;11.00;99.90
70947;DHT22;58605;48.700;8.760;2022-08-21T03:45:30;10.90;99.90
70947;DHT22;58605;48.700;8.760;2022-08-21T03:47:59;10.90;99.90
70947;DHT22;58605;48.700;8.760;2022-08-21T03:50:27;10.90;99.90
70947;DHT22;58605;48.700;8.760;2022-08-21T03:52:54;10.80;99.90
70947;DHT22;58605;48.700;8.760;2022-08-21T03:55:22;10.80;99.90
70947;DHT22;58605;48.700;8.760;2022-08-21T03:57:48;10.80;99.90
70947;DHT22;58605;48.700;8.760;2022-08-21T04:00:15;10.70;99.90
70947;DHT22;58605;48.700;8.760;2022-08-21T04:02:42;10.70;99.90
70947;DHT22;58605;48.700;8.760;2022-08-21T04:05:10;10.70;99.90
70947;DHT22;58605;48.700;8.760;2022-08-21T04:07:37;10.60;99.90
70947;DHT22;58605;48.700;8.760;2022-08-21T04:10:04;10.70;99.90
70947;DHT22;58605;48.700;8.760;2022-08-21T04:12:32;10.60;99.90
70947;DHT22;58605;48.700;8.760;2022-08-21T04:14:58;10.60;99.90
70947;DHT22;58605;48.700;8.760;2022-08-21T04:17:24;10.60;99.90
70947;DHT22;58605;48.700;8.760;2022-08-21T04:19:50;10.60;99.90
70947;DHT22;58605;48.700;8.760;2022-08-21T04:22:22;10.60;99.90
70947;DHT22;58605;48.700;8.760;2022-08-21T04:24:48;10.60;99.90
70947;DHT22;58605;48.700;8.760;2022-08-21T04:27:15;10.60;99.90
70947;DHT22;58605;48.700;8.760;2022-08-21T04:29:42;10.60;99.90
70947;DHT22;58605;48.700;8.760;2022-08-21T04:32:08;10.70;99.90
70947;DHT22;58605;48.700;8.760;2022-08-21T04:34:35;10.80;99.90
70947;DHT22;58605;48.700;8.760;2022-08-21T04:37:01;10.80;99.90
70947;DHT22;58605;48.700;8.760;2022-08-21T04:39:27;10.70;99.90
70947;DHT22;58605;48.700;8.760;2022-08-21T04:41:53;10.70;99.90
70947;DHT22;58605;48.700;8.760;2022-08-21T04:44:25;10.70;99.90
70947;DHT22;58605;48.700;8.760;2022-08-21T04:46:53;10.60;99.90
70947;DHT22;58605;48.700;8.760;2022-08-21T04:49:19;10.60;99.90
70947;DHT22;58605;48.700;8.760;2022-08-21T04:51:45;10.70;99.90
70947;DHT22;58605;48.700;8.760;2022-08-21T04:54:13;10.70;99.90
70947;DHT22;58605;48.700;8.760;2022-08-21T04:56:43;10.70;99.90
70947;DHT22;58605;48.700;8.760;2022-08-21T04:59:13;10.70;99.90
70947;DHT22;58605;48.700;8.760;2022-08-21T05:01:42;10.70;99.90
70947;DHT22;58605;48.700;8.760;2022-08-21T05:04:13;10.70;99.90
70947;DHT22;58605;48.700;8.760;2022-08-21T05:06:41;10.80;99.90
70947;DHT22;58605;48.700;8.760;2022-08-21T05:09:09;10.90;99.90
70947;DHT22;58605;48.700;8.760;2022-08-21T05:11:36;10.90;99.90
70947;DHT22;58605;48.700;8.760;2022-08-21T05:14:03;11.00;99.90
70947;DHT22;58605;48.700;8.760;2022-08-21T05:16:29;11.00;99.90
70947;DHT22;58605;48.700;8.760;2022-08-21T05:18:55;11.00;99.90
70947;DHT22;58605;48.700;8.760;2022-08-21T05:21:22;11.10;99.90
70947;DHT22;58605;48.700;8.760;2022-08-21T05:23:48;11.00;99.90
70947;DHT22;58605;48.700;8.760;2022-08-21T05:26:14;11.10;99.90
70947;DHT22;58605;48.700;8.760;2022-08-21T05:28:40;11.10;99.90
70947;DHT22;58605;48.700;8.760;2022-08-21T05:31:06;11.10;99.90
70947;DHT22;58605;48.700;8.760;2022-08-21T05:33:33;11.20;99.90
70947;DHT22;58605;48.700;8.760;2022-08-21T05:35:59;11.30;99.90
70947;DHT22;58605;48.700;8.760;2022-08-21T05:38:27;11.40;99.90
70947;DHT22;58605;48.700;8.760;2022-08-21T05:40:54;11.60;99.90
70947;DHT22;58605;48.700;8.760;2022-08-21T05:43:20;11.70;99.90
70947;DHT22;58605;48.700;8.760;2022-08-21T05:45:46;11.90;99.90
70947;DHT22;58605;48.700;8.760;2022-08-21T05:48:14;12.00;99.90
70947;DHT22;58605;48.700;8.760;2022-08-21T05:50:41;12.10;99.90
70947;DHT22;58605;48.700;8.760;2022-08-21T05:53:07;12.20;99.90
70947;DHT22;58605;48.700;8.760;2022-08-21T05:55:35;12.30;99.90
70947;DHT22;58605;48.700;8.760;2022-08-21T05:58:02;12.40;99.90
70947;DHT22;58605;48.700;8.760;2022-08-21T06:00:28;12.50;99.90
70947;DHT22;58605;48.700;8.760;2022-08-21T06:02:54;12.60;99.90
70947;DHT22;58605;48.700;8.760;2022-08-21T06:05:20;12.70;99.90
70947;DHT22;58605;48.700;8.760;2022-08-21T06:07:46;12.80;99.90
70947;DHT22;58605;48.700;8.760;2022-08-21T06:10:12;12.90;99.90
70947;DHT22;58605;48.700;8.760;2022-08-21T06:12:40;13.10;99.90
70947;DHT22;58605;48.700;8.760;2022-08-21T06:15:07;13.20;99.90
70947;DHT22;58605;48.700;8.760;2022-08-21T06:17:33;13.30;99.90
70947;DHT22;58605;48.700;8.760;2022-08-21T06:19:59;13.40;99.90
70947;DHT22;58605;48.700;8.760;2022-08-21T06:22:25;13.50;99.90
70947;DHT22;58605;48.700;8.760;2022-08-21T06:24:51;13.50;99.90
70947;DHT22;58605;48.700;8.760;2022-08-21T06:27:17;13.60;99.90
70947;DHT22;58605;48.700;8.760;2022-08-21T06:29:45;13.70;99.90
70947;DHT22;58605;48.700;8.760;2022-08-21T06:32:11;13.70;99.90
70947;DHT22;58605;48.700;8.760;2022-08-21T06:34:37;13.80;99.90
70947;DHT22;58605;48.700;8.760;2022-08-21T06:37:04;14.00;99.90
70947;DHT22;58605;48.700;8.760;2022-08-21T06:39:30;14.10;99.90
70947;DHT22;58605;48.700;8.760;2022-08-21T06:41:56;14.20;99.90
70947;DHT22;58605;48.700;8.760;2022-08-21T06:44:22;14.30;99.90
70947;DHT22;58605;48.700;8.760;2022-08-21T06:46:50;14.40;99.90
70947;DHT22;58605;48.700;8.760;2022-08-21T06:49:16;14.50;99.90
70947;DHT22;58605;48.700;8.760;2022-08-21T06:51:42;14.70;99.90
70947;DHT22;58605;48.700;8.760;2022-08-21T06:54:08;14.80;99.90
70947;DHT22;58605;48.700;8.760;2022-08-21T06:56:34;14.90;99.90
70947;DHT22;58605;48.700;8.760;2022-08-21T06:59:02;15.00;99.90
70947;DHT22;58605;48.700;8.760;2022-08-21T07:01:29;15.20;99.90
70947;DHT22;58605;48.700;8.760;2022-08-21T07:03:56;15.20;99.90
70947;DHT22;58605;48.700;8.760;2022-08-21T07:06:23;15.40;99.90
70947;DHT22;58605;48.700;8.760;2022-08-21T07:08:49;15.60;99.90
70947;DHT22;58605;48.700;8.760;2022-08-21T07:11:19;15.70;99.90
70947;DHT22;58605;48.700;8.760;2022-08-21T07:13:45;15.90;99.50
70947;DHT22;58605;48.700;8.760;2022-08-21T07:16:12;16.00;99.90
70947;DHT22;58605;48.700;8.760;2022-08-21T07:18:38;16.20;99.90
70947;DHT22;58605;48.700;8.760;2022-08-21T07:21:06;16.30;98.70
70947;DHT22;58605;48.700;8.760;2022-08-21T07:23:37;16.50;97.60
70947;DHT22;58605;48.700;8.760;2022-08-21T07:26:04;16.70;95.40
70947;DHT22;58605;48.700;8.760;2022-08-21T07:28:30;16.80;94.20
70947;DHT22;58605;48.700;8.760;2022-08-21T07:30:58;17.00;95.30
70947;DHT22;58605;48.700;8.760;2022-08-21T07:33:26;17.10;94.30
70947;DHT22;58605;48.700;8.760;2022-08-21T07:35:52;17.30;93.60
70947;DHT22;58605;48.700;8.760;2022-08-21T07:38:20;17.50;91.50
70947;DHT22;58605;48.700;8.760;2022-08-21T07:40:47;17.60;92.80
70947;DHT22;58605;48.700;8.760;2022-08-21T07:43:14;17.80;92.00
70947;DHT22;58605;48.700;8.760;2022-08-21T07:45:42;18.00;90.70
70947;DHT22;58605;48.700;8.760;2022-08-21T07:48:08;18.20;88.60
70947;DHT22;58605;48.700;8.760;2022-08-21T07:50:35;18.20;88.60
70947;DHT22;58605;48.700;8.760;2022-08-21T07:53:01;18.20;90.30
70947;DHT22;58605;48.700;8.760;2022-08-21T07:55:29;18.30;88.70
70947;DHT22;58605;48.700;8.760;2022-08-21T07:57:55;18.40;88.00
70947;DHT22;58605;48.700;8.760;2022-08-21T08:00:27;18.40;87.10
70947;DHT22;58605;48.700;8.760;2022-08-21T08:02:54;18.40;87.00
70947;DHT22;58605;48.700;8.760;2022-08-21T08:22:34;18.10;84.00
70947;DHT22;58605;48.700;8.760;2022-08-21T08:25:11;18.20;80.50
70947;DHT22;58605;48.700;8.760;2022-08-21T08:27:37;18.10;82.80
70947;DHT22;58605;48.700;8.760;2022-08-21T08:30:06;18.10;82.80
70947;DHT22;58605;48.700;8.760;2022-08-21T08:32:32;18.10;82.20
70947;DHT22;58605;48.700;8.760;2022-08-21T08:34:59;18.00;82.50
70947;DHT22;58605;48.700;8.760;2022-08-21T08:37:25;18.00;82.20
70947;DHT22;58605;48.700;8.760;2022-08-21T08:39:53;18.10;82.60
70947;DHT22;58605;48.700;8.760;2022-08-21T08:42:25;18.00;82.50
70947;DHT22;58605;48.700;8.760;2022-08-21T08:44:59;17.90;82.50
70947;DHT22;58605;48.700;8.760;2022-08-21T08:47:27;17.90;82.30
70947;DHT22;58605;48.700;8.760;2022-08-21T08:49:59;18.10;81.30
70947;DHT22;58605;48.700;8.760;2022-08-21T08:52:29;18.00;81.30
70947;DHT22;58605;48.700;8.760;2022-08-21T08:55:02;18.00;81.10
70947;DHT22;58605;48.700;8.760;2022-08-21T08:57:29;18.10;80.80
70947;DHT22;58605;48.700;8.760;2022-08-21T08:59:59;18.10;79.90
70947;DHT22;58605;48.700;8.760;2022-08-21T09:02:26;18.10;80.20
70947;DHT22;58605;48.700;8.760;2022-08-21T09:04:55;18.10;80.30
70947;DHT22;58605;48.700;8.760;2022-08-21T09:07:28;18.10;80.00
70947;DHT22;58605;48.700;8.760;2022-08-21T09:10:10;18.10;79.90
70947;DHT22;58605;48.700;8.760;2022-08-21T09:12:43;18.10;80.10
70947;DHT22;58605;48.700;8.760;2022-08-21T09:15:16;18.10;79.70
70947;DHT22;58605;48.700;8.760;2022-08-21T09:18:10;18.00;80.30
70947;DHT22;58605;48.700;8.760;2022-08-21T09:20:48;18.10;80.10
70947;DHT22;58605;48.700;8.760;2022-08-21T09:23:28;18.10;79.60
70947;DHT22;58605;48.700;8.760;2022-08-21T09:26:02;18.10;79.60
70947;DHT22;58605;48.700;8.760;2022-08-21T09:28:32;18.10;79.50
70947;DHT22;58605;48.700;8.760;2022-08-21T09:30:58;18.10;79.50
70947;DHT22;58605;48.700;8.760;2022-08-21T09:33:28;18.10;79.30
70947;DHT22;58605;48.700;8.760;2022-08-21T09:35:55;18.10;79.20
70947;DHT22;58605;48.700;8.760;2022-08-21T09:38:27;18.10;78.80
70947;DHT22;58605;48.700;8.760;2022-08-21T09:41:00;18.10;78.80
70947;DHT22;58605;48.700;8.760;2022-08-21T09:43:27;18.10;78.60
70947;DHT22;58605;48.700;8.760;2022-08-21T09:46:20;18.20;78.50
70947;DHT22;58605;48.700;8.760;2022-08-21T09:48:49;18.20;78.20
70947;DHT22;58605;48.700;8.760;2022-08-21T09:51:18;18.20;78.30
70947;DHT22;58605;48.700;8.760;2022-08-21T09:53:46;18.20;78.00
70947;DHT22;58605;48.700;8.760;2022-08-21T09:56:29;18.20;78.10
70947;DHT22;58605;48.700;8.760;2022-08-21T09:59:19;18.30;77.70
70947;DHT22;58605;48.700;8.760;2022-08-21T10:01:47;18.50;76.20
70947;DHT22;58605;48.700;8.760;2022-08-21T10:04:14;18.40;76.10
70947;DHT22;58605;48.700;8.760;2022-08-21T10:06:41;18.40;76.70
70947;DHT22;58605;48.700;8.760;2022-08-21T10:09:11;18.40;74.70
70947;DHT22;58605;48.700;8.760;2022-08-21T10:11:40;18.40;76.10
70947;DHT22;58605;48.700;8.760;2022-08-21T10:14:15;18.40;76.00
70947;DHT22;58605;48.700;8.760;2022-08-21T10:16:50;18.40;76.10
70947;DHT22;58605;48.700;8.760;2022-08-21T10:19:26;18.50;74.70
70947;DHT22;58605;48.700;8.760;2022-08-21T10:22:02;18.50;75.00
70947;DHT22;58605;48.700;8.760;2022-08-21T10:24:33;18.50;75.30
70947;DHT22;58605;48.700;8.760;2022-08-21T10:27:13;18.50;74.70
70947;DHT22;58605;48.700;8.760;2022-08-21T10:29:50;18.50;74.90
70947;DHT22;58605;48.700;8.760;2022-08-21T10:32:39;18.40;76.10
70947;DHT22;58605;48.700;8.760;2022-08-21T10:35:12;18.40;76.10
70947;DHT22;58605;48.700;8.760;2022-08-21T10:37:49;18.40;75.00
70947;DHT22;58605;48.700;8.760;2022-08-21T10:40:23;18.50;75.40
70947;DHT22;58605;48.700;8.760;2022-08-21T10:43:02;18.50;74.50
70947;DHT22;58605;48.700;8.760;2022-08-21T10:45:45;18.60;74.30
70947;DHT22;58605;48.700;8.760;2022-08-21T10:48:19;18.60;74.10
70947;DHT22;58605;48.700;8.760;2022-08-21T10:50:52;18.70;73.70
70947;DHT22;58605;48.700;8.760;2022-08-21T10:53:32;18.60;74.00
70947;DHT22;58605;48.700;8.760;2022-08-21T10:56:05;18.60;74.30
70947;DHT22;58605;48.700;8.760;2022-08-21T10:58:38;18.60;73.70
70947;DHT22;58605;48.700;8.760;2022-08-21T11:01:11;18.70;74.30
70947;DHT22;58605;48.700;8.760;2022-08-21T11:03:41;18.80;73.60
70947;DHT22;58605;48.700;8.760;2022-08-21T11:06:12;18.70;73.60
70947;DHT22;58605;48.700;8.760;2022-08-21T11:08:42;18.80;72.40
70947;DHT22;58605;48.700;8.760;2022-08-21T11:11:12;19.00;72.80
70947;DHT22;58605;48.700;8.760;2022-08-21T11:13:44;18.90;72.20
70947;DHT22;58605;48.700;8.760;2022-08-21T11:16:20;18.80;72.90
70947;DHT22;58605;48.700;8.760;2022-08-21T11:18:53;18.80;73.30
70947;DHT22;58605;48.700;8.760;2022-08-21T11:21:37;18.90;72.80
70947;DHT22;58605;48.700;8.760;2022-08-21T11:24:17;18.90;72.40
70947;DHT22;58605;48.700;8.760;2022-08-21T11:26:49;19.00;72.00
70947;DHT22;58605;48.700;8.760;2022-08-21T11:29:23;18.90;71.20
70947;DHT22;58605;48.700;8.760;2022-08-21T11:32:07;18.90;71.70
70947;DHT22;58605;48.700;8.760;2022-08-21T11:34:57;18.90;72.60
70947;DHT22;58605;48.700;8.760;2022-08-21T11:37:45;18.90;71.40
70947;DHT22;58605;48.700;8.760;2022-08-21T11:40:24;18.90;71.50
70947;DHT22;58605;48.700;8.760;2022-08-21T11:42:59;18.90;71.50
70947;DHT22;58605;48.700;8.760;2022-08-21T11:45:35;19.00;71.40
70947;DHT22;58605;48.700;8.760;2022-08-21T11:48:11;19.00;71.10
70947;DHT22;58605;48.700;8.760;2022-08-21T11:50:42;19.00;71.30
70947;DHT22;58605;48.700;8.760;2022-08-21T11:53:13;19.00;71.30
70947;DHT22;58605;48.700;8.760;2022-08-21T11:55:44;19.10;70.80
70947;DHT22;58605;48.700;8.760;2022-08-21T11:58:15;19.10;70.10
70947;DHT22;58605;48.700;8.760;2022-08-21T12:00:55;19.10;71.50
70947;DHT22;58605;48.700;8.760;2022-08-21T12:03:26;19.00;70.80
70947;DHT22;58605;48.700;8.760;2022-08-21T12:05:55;19.10;69.50
70947;DHT22;58605;48.700;8.760;2022-08-21T12:08:30;19.10;69.80
70947;DHT22;58605;48.700;8.760;2022-08-21T12:11:03;19.10;70.40
70947;DHT22;58605;48.700;8.760;2022-08-21T12:13:32;19.20;69.70
70947;DHT22;58605;48.700;8.760;2022-08-21T12:16:11;19.20;69.00
70947;DHT22;58605;48.700;8.760;2022-08-21T12:18:38;19.20;69.20
70947;DHT22;58605;48.700;8.760;2022-08-21T12:21:16;19.20;69.20
70947;DHT22;58605;48.700;8.760;2022-08-21T12:23:46;19.20;69.60
70947;DHT22;58605;48.700;8.760;2022-08-21T12:26:24;19.20;69.20
70947;DHT22;58605;48.700;8.760;2022-08-21T12:29:07;19.30;68.90
70947;DHT22;58605;48.700;8.760;2022-08-21T12:31:48;19.30;69.20
70947;DHT22;58605;48.700;8.760;2022-08-21T12:34:15;19.30;69.00
70947;DHT22;58605;48.700;8.760;2022-08-21T12:36:45;19.30;69.40
70947;DHT22;58605;48.700;8.760;2022-08-21T12:39:15;19.30;69.30
70947;DHT22;58605;48.700;8.760;2022-08-21T12:41:49;19.20;69.60
70947;DHT22;58605;48.700;8.760;2022-08-21T12:44:20;19.20;70.50
70947;DHT22;58605;48.700;8.760;2022-08-21T12:46:51;19.30;69.00
70947;DHT22;58605;48.700;8.760;2022-08-21T12:49:26;19.30;69.40
70947;DHT22;58605;48.700;8.760;2022-08-21T12:52:12;19.30;68.80
70947;DHT22;58605;48.700;8.760;2022-08-21T12:54:42;19.40;68.20
70947;DHT22;58605;48.700;8.760;2022-08-21T12:57:09;19.40;68.80
70947;DHT22;58605;48.700;8.760;2022-08-21T12:59:42;19.70;66.20
70947;DHT22;58605;48.700;8.760;2022-08-21T13:02:16;19.70;66.90
70947;DHT22;58605;48.700;8.760;2022-08-21T13:04:44;19.60;66.80
70947;DHT22;58605;48.700;8.760;2022-08-21T13:07:14;19.60;67.30
70947;DHT22;58605;48.700;8.760;2022-08-21T13:09:46;19.60;66.50
70947;DHT22;58605;48.700;8.760;2022-08-21T13:12:14;19.60;66.20
70947;DHT22;58605;48.700;8.760;2022-08-21T13:14:42;19.60;66.90
70947;DHT22;58605;48.700;8.760;2022-08-21T13:17:11;19.70;66.00
70947;DHT22;58605;48.700;8.760;2022-08-21T13:19:38;19.70;66.00
70947;DHT22;58605;48.700;8.760;2022-08-21T13:22:12;19.70;66.10
70947;DHT22;58605;48.700;8.760;2022-08-21T13:24:38;19.70;64.30
70947;DHT22;58605;48.700;8.760;2022-08-21T13:27:20;20.00;64.30
70947;DHT22;58605;48.700;8.760;2022-08-21T13:29:48;20.00;63.80
70947;DHT22;58605;48.700;8.760;2022-08-21T13:32:21;20.00;64.70
70947;DHT22;58605;48.700;8.760;2022-08-21T13:34:47;20.30;60.90
70947;DHT22;58605;48.700;8.760;2022-08-21T13:37:14;21.00;60.60
70947;DHT22;58605;48.700;8.760;2022-08-21T13:39:40;20.80;61.70
70947;DHT22;58605;48.700;8.760;2022-08-21T13:42:12;21.20;58.70
70947;DHT22;58605;48.700;8.760;2022-08-21T13:44:41;22.10;55.20
70947;DHT22;58605;48.700;8.760;2022-08-21T13:47:11;22.70;55.30
70947;DHT22;58605;48.700;8.760;2022-08-21T13:49:43;22.50;56.70
70947;DHT22;58605;48.700;8.760;2022-08-21T13:52:15;22.40;55.80
70947;DHT22;58605;48.700;8.760;2022-08-21T13:54:42;22.10;57.50
70947;DHT22;58605;48.700;8.760;2022-08-21T13:57:16;22.50;55.10
70947;DHT22;58605;48.700;8.760;2022-08-21T13:59:42;21.90;57.50
70947;DHT22;58605;48.700;8.760;2022-08-21T14:02:12;21.30;59.10
70947;DHT22;58605;48.700;8.760;2022-08-21T14:04:51;21.00;59.70
70947;DHT22;58605;48.700;8.760;2022-08-21T14:07:24;20.90;60.00
70947;DHT22;58605;48.700;8.760;2022-08-21T14:09:52;21.00;59.60
70947;DHT22;58605;48.700;8.760;2022-08-21T14:12:24;20.60;60.90
70947;DHT22;58605;48.700;8.760;2022-08-21T14:14:52;20.50;61.30
70947;DHT22;58605;48.700;8.760;2022-08-21T14:17:27;20.30;61.50
70947;DHT22;58605;48.700;8.760;2022-08-21T14:19:54;20.20;62.00
70947;DHT22;58605;48.700;8.760;2022-08-21T14:22:29;20.80;57.80
70947;DHT22;58605;48.700;8.760;2022-08-21T14:25:00;21.80;55.60
70947;DHT22;58605;48.700;8.760;2022-08-21T14:27:28;22.70;53.40
70947;DHT22;58605;48.700;8.760;2022-08-21T14:29:59;23.30;53.00
70947;DHT22;58605;48.700;8.760;2022-08-21T14:32:28;22.90;54.20
70947;DHT22;58605;48.700;8.760;2022-08-21T14:34:57;22.90;52.10
70947;DHT22;58605;48.700;8.760;2022-08-21T14:37:24;22.60;55.00
70947;DHT22;58605;48.700;8.760;2022-08-21T14:39:51;22.10;55.00
70947;DHT22;58605;48.700;8.760;2022-08-21T14:42:17;21.70;57.20
70947;DHT22;58605;48.700;8.760;2022-08-21T14:44:43;21.40;58.20
70947;DHT22;58605;48.700;8.760;2022-08-21T14:47:09;21.00;59.20
70947;DHT22;58605;48.700;8.760;2022-08-21T14:49:36;20.80;59.70
70947;DHT22;58605;48.700;8.760;2022-08-21T14:52:04;21.10;57.80
70947;DHT22;58605;48.700;8.760;2022-08-21T14:54:31;21.40;57.70
70947;DHT22;58605;48.700;8.760;2022-08-21T14:56:58;21.70;57.00
70947;DHT22;58605;48.700;8.760;2022-08-21T14:59:25;22.40;55.30
70947;DHT22;58605;48.700;8.760;2022-08-21T15:01:58;21.90;56.70
70947;DHT22;58605;48.700;8.760;2022-08-21T15:04:24;22.30;54.90
70947;DHT22;58605;48.700;8.760;2022-08-21T15:06:50;22.70;53.50
70947;DHT22;58605;48.700;8.760;2022-08-21T15:09:18;23.20;51.80
70947;DHT22;58605;48.700;8.760;2022-08-21T15:11:44;23.10;54.10
70947;DHT22;58605;48.700;8.760;2022-08-21T15:14:14;23.00;53.20
70947;DHT22;58605;48.700;8.760;2022-08-21T15:16:41;23.50;52.10
70947;DHT22;58605;48.700;8.760;2022-08-21T15:19:07;23.70;51.20
70947;DHT22;58605;48.700;8.760;2022-08-21T15:21:33;24.10;51.50
70947;DHT22;58605;48.700;8.760;2022-08-21T15:23:59;23.60;52.70
70947;DHT22;58605;48.700;8.760;2022-08-21T15:26:34;23.60;53.00
70947;DHT22;58605;48.700;8.760;2022-08-21T15:29:01;23.30;53.50
70947;DHT22;58605;48.700;8.760;2022-08-21T15:31:28;23.30;53.00
70947;DHT22;58605;48.700;8.760;2022-08-21T15:33:54;23.10;53.30
70947;DHT22;58605;48.700;8.760;2022-08-21T15:36:20;23.00;54.80
70947;DHT22;58605;48.700;8.760;2022-08-21T15:38:47;22.40;56.10
70947;DHT22;58605;48.700;8.760;2022-08-21T15:41:13;22.00;56.90
70947;DHT22;58605;48.700;8.760;2022-08-21T15:43:45;21.60;58.00
70947;DHT22;58605;48.700;8.760;2022-08-21T15:46:13;21.30;58.40
70947;DHT22;58605;48.700;8.760;2022-08-21T15:48:40;21.10;59.20
70947;DHT22;58605;48.700;8.760;2022-08-21T15:51:06;21.10;59.10
70947;DHT22;58605;48.700;8.760;2022-08-21T15:53:32;21.20;59.10
70947;DHT22;58605;48.700;8.760;2022-08-21T15:56:02;21.10;58.10
70947;DHT22;58605;48.700;8.760;2022-08-21T15:58:28;21.90;56.20
70947;DHT22;58605;48.700;8.760;2022-08-21T16:00:58;22.30;56.20